SBPG/PNG METAR and TAF weather

Enter ICAO airport designator
Station Type Date Time Source
SBPG METAR 2022/01/24 15:00 UTC NOAA

SBPG 241500Z 18003KT 9999 SCT025 28/20 Q1016


Station Type Date Time Source
SBPG Decoded METAR 2022/01/24 15:00 UTC NOAA

Paranagua, Brazil (SBPG) 25-31S 048-31W
Jan 24, 2022 - 10:00 AM EST / 2022.01.24 1500 UTC
Wind: from the S (180 degrees) at 3 MPH (3 KT):0
Visibility: greater than 7 mile(s):0
Sky conditions: partly cloudy
Temperature: 82 F (28 C)
Dew Point: 68 F (20 C)
Relative Humidity: 61%
Pressure (altimeter): 30.00 in. Hg (1016 hPa)
ob: SBPG 241500Z 18003KT 9999 SCT025 28/20 Q1016
cycle: 15

Station Type Date Time Source
SBPG TAF UTC NOAA

Error!

Example: see airport list